Time;durP1;ratioP1;P1;durP2;ratioP2;P2;SDS_P1;SDS_P2;PMS_P1;PMS_P2;Temp;Humidity;BMP_temperature;BMP_pressure;BME280_temperature;BME280_humidity;BME280_pressure;Samples;Min_cycle;Max_cycle;Signal;HPM_P1;HPM_P2
2021/05/21 00:00:02;;;;;;;;;;;10.10;99.90;;;;;;4974500;28;19926;-74
2021/05/21 00:02:36;;;;;;;;;;;10.20;99.90;;;;;;4974719;28;19948;-77
2021/05/21 00:05:04;;;;;;;;;;;10.20;99.90;;;;;;4974593;28;19927;-72
2021/05/21 00:07:56;;;;;;;;;;;10.30;99.90;;;;;;4977237;28;19926;-72
2021/05/21 00:10:24;;;;;;;;;;;10.40;99.90;;;;;;4978889;28;19926;-73
2021/05/21 00:12:52;;;;;;;;;;;10.40;99.90;;;;;;4977398;28;19926;-72
2021/05/21 00:15:21;;;;;;;;;;;10.30;99.90;;;;;;4960204;28;19949;-72
2021/05/21 00:17:49;;;;;;;;;;;10.30;99.90;;;;;;4978590;28;19937;-72
2021/05/21 00:20:17;;;;;;;;;;;10.20;99.90;;;;;;4978724;28;19926;-72
2021/05/21 00:22:45;;;;;;;;;;;10.10;99.90;;;;;;4978531;28;19926;-72
2021/05/21 00:25:13;;;;;;;;;;;10.10;99.90;;;;;;4977361;28;19980;-72
2021/05/21 00:27:41;;;;;;;;;;;10.10;99.90;;;;;;4977602;28;20025;-72
2021/05/21 00:30:09;;;;;;;;;;;10.00;99.90;;;;;;4981933;28;19976;-72
2021/05/21 00:32:38;;;;;;;;;;;10.00;99.90;;;;;;4978788;28;19981;-77
2021/05/21 00:35:06;;;;;;;;;;;9.90;99.90;;;;;;4978298;28;20390;-77
2021/05/21 00:37:58;;;;;;;;;;;9.90;99.90;;;;;;4978518;28;20290;-72
2021/05/21 00:40:26;;;;;;;;;;;9.80;99.90;;;;;;4960955;28;20407;-75
2021/05/21 00:42:54;;;;;;;;;;;9.80;99.90;;;;;;4978344;28;19938;-77
2021/05/21 00:45:22;;;;;;;;;;;9.80;99.90;;;;;;4975953;28;19934;-73
2021/05/21 00:47:50;;;;;;;;;;;9.80;99.90;;;;;;4978078;28;19926;-73
2021/05/21 00:50:18;;;;;;;;;;;9.80;99.90;;;;;;4977899;28;19934;-72
2021/05/21 00:52:46;;;;;;;;;;;9.70;99.90;;;;;;4978376;28;20350;-73
2021/05/21 00:55:14;;;;;;;;;;;9.70;99.90;;;;;;4977150;28;20275;-72
2021/05/21 00:57:42;;;;;;;;;;;9.70;99.90;;;;;;4993167;28;19926;-73
2021/05/21 01:00:10;;;;;;;;;;;9.70;99.90;;;;;;4978518;28;19926;-72
2021/05/21 01:02:38;;;;;;;;;;;9.80;99.90;;;;;;4977917;28;19926;-75
2021/05/21 01:05:07;;;;;;;;;;;9.80;99.90;;;;;;4978800;28;20001;-73
2021/05/21 01:07:59;;;;;;;;;;;9.80;99.90;;;;;;4979185;28;20412;-72
2021/05/21 01:10:27;;;;;;;;;;;9.80;99.90;;;;;;4982518;28;19926;-72
2021/05/21 01:12:55;;;;;;;;;;;9.80;99.90;;;;;;4982516;28;20068;-72
2021/05/21 01:15:24;;;;;;;;;;;9.80;99.90;;;;;;4983073;28;19932;-73
2021/05/21 01:17:52;;;;;;;;;;;9.70;99.90;;;;;;4984687;28;19973;-73
2021/05/21 01:20:21;;;;;;;;;;;9.70;99.90;;;;;;4986115;28;19926;-71
2021/05/21 01:22:50;;;;;;;;;;;9.70;99.90;;;;;;4986430;28;19930;-72
2021/05/21 01:25:18;;;;;;;;;;;9.60;99.90;;;;;;4985295;28;19926;-73
2021/05/21 01:27:46;;;;;;;;;;;9.60;99.90;;;;;;4986192;28;19953;-75
2021/05/21 01:30:14;;;;;;;;;;;9.50;99.90;;;;;;4985843;28;19953;-72
2021/05/21 01:32:42;;;;;;;;;;;9.50;99.90;;;;;;4983472;28;19948;-72
2021/05/21 01:35:11;;;;;;;;;;;9.50;99.90;;;;;;5008099;22;20408;-67
2021/05/21 01:38:04;;;;;;;;;;;9.50;99.90;;;;;;4996699;28;19980;-66
2021/05/21 01:40:36;;;;;;;;;;;9.50;99.90;;;;;;4995062;28;19936;-68
2021/05/21 01:43:04;;;;;;;;;;;9.50;99.90;;;;;;4996348;28;19926;-67
2021/05/21 01:45:32;;;;;;;;;;;9.50;99.90;;;;;;4998002;28;20023;-69
2021/05/21 01:48:00;;;;;;;;;;;9.50;99.90;;;;;;5016127;28;19933;-67
2021/05/21 01:50:28;;;;;;;;;;;9.50;99.90;;;;;;4998515;28;19945;-68
2021/05/21 01:52:55;;;;;;;;;;;9.40;99.90;;;;;;5014735;28;19926;-68
2021/05/21 01:55:23;;;;;;;;;;;9.40;99.90;;;;;;5015888;28;19925;-67
2021/05/21 01:57:52;;;;;;;;;;;9.40;99.90;;;;;;5014814;28;19925;-67
2021/05/21 02:00:19;;;;;;;;;;;9.40;99.90;;;;;;5013593;28;19980;-67
2021/05/21 02:02:47;;;;;;;;;;;9.40;99.90;;;;;;5030783;28;19929;-67
2021/05/21 02:05:16;;;;;;;;;;;9.30;99.90;;;;;;5014296;28;19926;-67
2021/05/21 02:07:46;;;;;;;;;;;9.30;99.90;;;;;;5015814;28;19983;-67
2021/05/21 02:10:14;;;;;;;;;;;9.40;99.90;;;;;;5015958;28;20020;-68
2021/05/21 02:12:42;;;;;;;;;;;9.40;99.90;;;;;;5013866;28;19975;-67
2021/05/21 02:15:12;;;;;;;;;;;9.30;99.90;;;;;;5014698;28;19996;-69
2021/05/21 02:17:41;;;;;;;;;;;9.30;99.90;;;;;;5013947;28;19926;-70
2021/05/21 02:20:09;;;;;;;;;;;9.40;99.90;;;;;;5015317;28;20305;-67
2021/05/21 02:22:39;;;;;;;;;;;9.40;99.90;;;;;;5015035;28;19936;-68
2021/05/21 02:25:07;;;;;;;;;;;9.40;99.90;;;;;;5014859;28;19925;-68
2021/05/21 02:27:35;;;;;;;;;;;9.40;99.90;;;;;;5044088;22;19925;-67
2021/05/21 02:30:03;;;;;;;;;;;9.40;99.90;;;;;;5015538;28;19925;-68
2021/05/21 02:32:32;;;;;;;;;;;9.40;99.90;;;;;;5015308;28;20379;-68
2021/05/21 02:35:00;;;;;;;;;;;9.40;99.90;;;;;;5031773;28;19926;-68
2021/05/21 02:37:27;;;;;;;;;;;9.40;99.90;;;;;;5014954;28;20028;-68
2021/05/21 02:40:45;;;;;;;;;;;9.40;99.90;;;;;;5015985;28;19977;-68
2021/05/21 02:43:13;;;;;;;;;;;9.40;99.90;;;;;;5031467;28;19932;-67
2021/05/21 02:45:41;;;;;;;;;;;9.40;99.90;;;;;;5015705;28;20016;-67
2021/05/21 02:48:09;;;;;;;;;;;9.30;99.90;;;;;;5020616;28;19930;-68
2021/05/21 02:50:39;;;;;;;;;;;9.30;99.90;;;;;;5029692;28;19960;-70
2021/05/21 02:53:07;;;;;;;;;;;9.40;99.90;;;;;;5029783;28;20005;-68
2021/05/21 02:55:35;;;;;;;;;;;9.40;99.90;;;;;;5029586;28;19925;-68
2021/05/21 02:58:03;;;;;;;;;;;9.40;99.90;;;;;;5044922;28;19965;-68
2021/05/21 03:00:30;;;;;;;;;;;9.40;99.90;;;;;;5027086;28;19925;-70
2021/05/21 03:02:58;;;;;;;;;;;9.40;99.90;;;;;;5029198;28;19925;-70
2021/05/21 03:05:27;;;;;;;;;;;9.40;99.90;;;;;;5045178;28;20342;-68
2021/05/21 03:07:55;;;;;;;;;;;9.40;99.90;;;;;;5029197;28;19936;-68
2021/05/21 03:10:23;;;;;;;;;;;9.50;99.90;;;;;;5043849;28;19953;-70
2021/05/21 03:12:51;;;;;;;;;;;9.40;99.90;;;;;;5028960;28;19927;-68
2021/05/21 03:15:19;;;;;;;;;;;9.50;99.90;;;;;;5010188;28;19932;-68
2021/05/21 03:17:47;;;;;;;;;;;9.50;99.90;;;;;;5026817;28;19941;-68
2021/05/21 03:20:15;;;;;;;;;;;9.60;99.90;;;;;;5017019;28;20416;-68
2021/05/21 03:22:49;;;;;;;;;;;9.60;99.90;;;;;;5039748;28;19925;-70
2021/05/21 03:25:17;;;;;;;;;;;9.60;99.90;;;;;;5026794;28;19949;-68
2021/05/21 03:27:45;;;;;;;;;;;9.60;99.90;;;;;;5027375;28;19940;-68
2021/05/21 03:30:14;;;;;;;;;;;9.60;99.90;;;;;;5027363;28;19933;-68
2021/05/21 03:32:42;;;;;;;;;;;9.70;99.90;;;;;;5016205;28;19926;-68
2021/05/21 03:35:11;;;;;;;;;;;9.70;99.90;;;;;;5015064;28;20340;-69
2021/05/21 03:37:39;;;;;;;;;;;9.70;99.90;;;;;;5032174;28;20383;-70
2021/05/21 03:40:32;;;;;;;;;;;9.70;99.90;;;;;;5031341;28;19926;-69
2021/05/21 03:43:01;;;;;;;;;;;9.80;99.90;;;;;;5031888;28;20293;-70
2021/05/21 03:45:29;;;;;;;;;;;9.80;99.90;;;;;;5016485;28;20348;-68
2021/05/21 03:47:56;;;;;;;;;;;9.90;99.90;;;;;;5031802;28;19983;-67
2021/05/21 03:50:24;;;;;;;;;;;9.90;99.90;;;;;;5015276;28;20348;-68
2021/05/21 03:52:52;;;;;;;;;;;9.90;99.90;;;;;;5014848;28;19926;-68
2021/05/21 03:55:21;;;;;;;;;;;9.90;99.90;;;;;;5031538;28;20019;-67
2021/05/21 03:57:48;;;;;;;;;;;9.90;99.90;;;;;;5015721;28;19925;-70
2021/05/21 04:00:18;;;;;;;;;;;9.90;99.90;;;;;;5015107;28;19951;-68
2021/05/21 04:02:49;;;;;;;;;;;10.00;99.90;;;;;;5031308;28;19940;-68
2021/05/21 04:05:17;;;;;;;;;;;10.00;99.90;;;;;;5015240;28;19926;-70
2021/05/21 04:07:45;;;;;;;;;;;10.00;99.90;;;;;;5015644;28;19988;-71
2021/05/21 04:10:13;;;;;;;;;;;10.10;99.90;;;;;;4998378;28;20393;-68
2021/05/21 04:12:41;;;;;;;;;;;10.20;99.90;;;;;;5016778;28;19926;-70
2021/05/21 04:15:10;;;;;;;;;;;10.20;99.90;;;;;;4999231;28;20028;-67
2021/05/21 04:17:39;;;;;;;;;;;10.20;99.90;;;;;;5029280;28;19926;-69
2021/05/21 04:20:07;;;;;;;;;;;10.20;99.90;;;;;;5014591;28;19960;-68
2021/05/21 04:22:35;;;;;;;;;;;10.20;99.90;;;;;;5014643;28;19931;-67
2021/05/21 04:25:03;;;;;;;;;;;10.20;99.90;;;;;;5012827;28;20324;-71
2021/05/21 04:27:32;;;;;;;;;;;10.30;99.90;;;;;;5014358;28;20348;-67
2021/05/21 04:30:02;;;;;;;;;;;10.40;99.90;;;;;;5030153;28;20356;-67
2021/05/21 04:32:30;;;;;;;;;;;10.40;99.90;;;;;;5013739;28;19987;-68
2021/05/21 04:34:59;;;;;;;;;;;10.40;99.90;;;;;;5014427;28;20029;-69
2021/05/21 04:37:27;;;;;;;;;;;10.40;99.90;;;;;;5029089;28;19925;-69
2021/05/21 04:40:20;;;;;;;;;;;10.50;99.90;;;;;;5014118;28;19926;-68
2021/05/21 04:42:48;;;;;;;;;;;10.50;99.90;;;;;;5012938;28;19925;-68
2021/05/21 04:45:18;;;;;;;;;;;10.50;99.90;;;;;;5012985;28;19980;-68
2021/05/21 04:47:45;;;;;;;;;;;10.60;99.90;;;;;;5012604;28;19926;-68
2021/05/21 04:50:15;;;;;;;;;;;10.60;99.90;;;;;;5013688;28;19926;-68
2021/05/21 04:52:43;;;;;;;;;;;10.70;99.90;;;;;;5015444;28;19925;-69
2021/05/21 04:55:11;;;;;;;;;;;10.80;99.90;;;;;;5000359;28;19930;-68
2021/05/21 04:57:39;;;;;;;;;;;10.90;99.90;;;;;;5017854;28;19926;-68
2021/05/21 05:00:08;;;;;;;;;;;10.80;99.90;;;;;;5017611;28;20024;-68
2021/05/21 05:02:35;;;;;;;;;;;10.80;99.90;;;;;;5016758;28;19926;-69
2021/05/21 05:05:03;;;;;;;;;;;11.10;99.90;;;;;;5033382;28;19926;-70
2021/05/21 05:07:32;;;;;;;;;;;11.10;99.90;;;;;;5017814;28;20381;-69
2021/05/21 05:10:00;;;;;;;;;;;11.30;99.90;;;;;;5032574;28;20448;-68
2021/05/21 05:12:27;;;;;;;;;;;11.20;99.90;;;;;;5017358;28;19964;-66
2021/05/21 05:14:59;;;;;;;;;;;11.50;99.90;;;;;;5016003;28;20429;-66
2021/05/21 05:17:27;;;;;;;;;;;11.30;99.90;;;;;;5015949;28;19967;-68
2021/05/21 05:19:55;;;;;;;;;;;11.60;99.90;;;;;;5017589;28;19972;-66
2021/05/21 05:22:23;;;;;;;;;;;11.80;99.90;;;;;;5017720;28;19925;-66
2021/05/21 05:24:55;;;;;;;;;;;12.00;99.90;;;;;;5018764;28;19973;-66
2021/05/21 05:27:23;;;;;;;;;;;11.80;99.90;;;;;;5018249;28;20011;-66
2021/05/21 05:29:51;;;;;;;;;;;12.20;99.90;;;;;;5017944;28;19925;-66
2021/05/21 05:32:19;;;;;;;;;;;12.60;99.90;;;;;;5016766;28;19925;-66
2021/05/21 05:34:46;;;;;;;;;;;12.50;99.90;;;;;;5017387;28;20020;-66
2021/05/21 05:37:14;;;;;;;;;;;12.50;99.90;;;;;;5017695;28;19926;-65
2021/05/21 05:39:43;;;;;;;;;;;12.30;99.90;;;;;;5017746;28;20401;-66
2021/05/21 05:42:12;;;;;;;;;;;12.40;99.90;;;;;;5000692;28;20393;-66
2021/05/21 05:44:40;;;;;;;;;;;12.40;99.90;;;;;;5018052;28;19926;-66
2021/05/21 05:47:07;;;;;;;;;;;12.30;99.90;;;;;;5016481;28;20348;-67
2021/05/21 05:49:35;;;;;;;;;;;12.60;99.90;;;;;;5018078;28;19985;-66
2021/05/21 05:52:03;;;;;;;;;;;12.80;99.90;;;;;;5017118;28;19948;-65
2021/05/21 05:54:31;;;;;;;;;;;12.90;99.90;;;;;;5017245;28;20373;-66
2021/05/21 05:56:59;;;;;;;;;;;13.10;99.90;;;;;;5017461;28;19959;-67
2021/05/21 05:59:28;;;;;;;;;;;13.30;99.90;;;;;;5017460;28;19964;-65
2021/05/21 06:01:55;;;;;;;;;;;13.30;99.90;;;;;;5031812;28;19932;-65
2021/05/21 06:04:23;;;;;;;;;;;13.20;99.90;;;;;;5016486;28;19952;-65
2021/05/21 06:06:53;;;;;;;;;;;13.60;99.90;;;;;;5017001;28;20300;-66
2021/05/21 06:09:21;;;;;;;;;;;13.60;99.90;;;;;;5015611;28;19926;-66
2021/05/21 06:11:50;;;;;;;;;;;13.20;99.90;;;;;;5016565;28;19926;-66
2021/05/21 06:14:17;;;;;;;;;;;13.60;99.90;;;;;;5016520;28;19953;-65
2021/05/21 06:16:46;;;;;;;;;;;13.50;99.90;;;;;;5016026;28;20416;-66
2021/05/21 06:19:13;;;;;;;;;;;13.70;99.90;;;;;;5017038;28;19933;-66
2021/05/21 06:21:41;;;;;;;;;;;14.20;99.90;;;;;;5016831;28;19972;-66
2021/05/21 06:24:11;;;;;;;;;;;14.30;99.90;;;;;;5017233;28;20332;-67
2021/05/21 06:27:16;;;;;;;;;;;14.30;99.90;;;;;;5032028;28;20024;-66
2021/05/21 06:29:44;;;;;;;;;;;14.50;99.90;;;;;;5016788;28;20385;-67
2021/05/21 06:32:37;;;;;;;;;;;14.40;99.90;;;;;;5016559;28;20056;-66
2021/05/21 06:35:06;;;;;;;;;;;14.30;99.90;;;;;;5037991;28;19925;-66
2021/05/21 06:37:39;;;;;;;;;;;14.50;99.90;;;;;;5016800;28;19926;-65
2021/05/21 06:40:34;;;;;;;;;;;14.30;99.90;;;;;;5018583;28;19930;-66
2021/05/21 06:43:06;;;;;;;;;;;14.80;99.90;;;;;;5017740;28;19936;-66
2021/05/21 06:45:34;;;;;;;;;;;14.50;99.90;;;;;;5015862;28;20386;-66
2021/05/21 06:48:03;;;;;;;;;;;14.50;99.90;;;;;;5018107;28;20033;-66
2021/05/21 06:50:31;;;;;;;;;;;14.50;99.90;;;;;;5018231;28;19937;-66
2021/05/21 06:52:58;;;;;;;;;;;14.90;99.90;;;;;;5015369;28;19936;-66
2021/05/21 06:55:26;;;;;;;;;;;15.00;99.90;;;;;;5017235;28;19995;-66
2021/05/21 06:57:54;;;;;;;;;;;14.60;99.90;;;;;;5031521;28;20328;-66
2021/05/21 07:00:22;;;;;;;;;;;14.70;99.90;;;;;;5015520;28;19933;-66
2021/05/21 07:02:49;;;;;;;;;;;15.20;99.90;;;;;;5016400;28;20444;-67
2021/05/21 07:05:18;;;;;;;;;;;15.00;99.90;;;;;;5031223;28;20019;-66
2021/05/21 07:07:46;;;;;;;;;;;15.20;99.90;;;;;;5031357;28;19926;-66
2021/05/21 07:10:14;;;;;;;;;;;15.20;99.90;;;;;;5016023;28;19926;-68
2021/05/21 07:12:42;;;;;;;;;;;15.60;99.90;;;;;;5016010;28;19985;-66
2021/05/21 07:15:10;;;;;;;;;;;15.80;99.90;;;;;;5015947;28;19925;-67
2021/05/21 07:17:39;;;;;;;;;;;15.50;99.90;;;;;;5015592;28;19932;-66
2021/05/21 07:20:10;;;;;;;;;;;15.60;99.90;;;;;;5015417;28;19987;-66
2021/05/21 07:22:39;;;;;;;;;;;15.00;99.90;;;;;;5030397;28;20020;-66
2021/05/21 07:25:07;;;;;;;;;;;15.30;99.90;;;;;;5030851;28;19964;-69
2021/05/21 07:27:36;;;;;;;;;;;15.10;99.90;;;;;;5015014;28;19980;-67
2021/05/21 07:30:05;;;;;;;;;;;14.70;99.90;;;;;;5015297;28;19925;-66
2021/05/21 07:32:32;;;;;;;;;;;14.90;99.90;;;;;;5014917;28;20028;-67
2021/05/21 07:35:00;;;;;;;;;;;14.80;99.90;;;;;;5015352;28;20024;-67
2021/05/21 07:37:53;;;;;;;;;;;14.70;99.90;;;;;;5015841;28;19925;-67
2021/05/21 07:40:23;;;;;;;;;;;15.00;99.90;;;;;;5016401;28;19925;-66
2021/05/21 07:42:52;;;;;;;;;;;15.10;99.90;;;;;;5030934;28;19976;-67
2021/05/21 07:45:20;;;;;;;;;;;15.10;99.90;;;;;;5014143;28;20266;-66
2021/05/21 07:47:50;;;;;;;;;;;15.00;99.90;;;;;;5030050;28;19937;-66
2021/05/21 07:50:18;;;;;;;;;;;15.10;99.90;;;;;;5015638;28;19926;-66
2021/05/21 07:52:46;;;;;;;;;;;15.20;99.90;;;;;;5015172;28;19925;-70
2021/05/21 07:55:14;;;;;;;;;;;15.20;99.90;;;;;;5015776;28;19925;-68
2021/05/21 07:57:43;;;;;;;;;;;15.30;99.90;;;;;;5015490;28;20017;-66
2021/05/21 08:00:11;;;;;;;;;;;15.40;99.90;;;;;;5015018;28;19934;-66
2021/05/21 08:02:41;;;;;;;;;;;15.30;99.90;;;;;;5014412;28;19925;-66
2021/05/21 08:08:23;;;;;;;;;;;15.20;99.90;;;;;;5015447;28;19925;-66
2021/05/21 08:10:52;;;;;;;;;;;15.10;99.90;;;;;;5015408;28;19972;-66
2021/05/21 08:13:21;;;;;;;;;;;15.00;99.90;;;;;;5014063;28;20066;-68
2021/05/21 08:15:49;;;;;;;;;;;15.00;99.90;;;;;;5018783;28;19933;-67
2021/05/21 08:18:17;;;;;;;;;;;15.10;99.90;;;;;;5013987;28;20339;-66
2021/05/21 08:20:45;;;;;;;;;;;15.10;99.90;;;;;;5014553;28;20401;-68
2021/05/21 08:23:14;;;;;;;;;;;15.30;99.90;;;;;;5030016;28;19933;-66
2021/05/21 08:25:42;;;;;;;;;;;15.40;99.90;;;;;;5014375;28;20400;-66
2021/05/21 08:28:11;;;;;;;;;;;15.50;99.90;;;;;;5017536;28;19925;-68
2021/05/21 08:30:40;;;;;;;;;;;15.60;99.90;;;;;;5018085;28;19925;-66
2021/05/21 08:33:09;;;;;;;;;;;15.80;99.90;;;;;;5018639;28;19973;-68
2021/05/21 08:35:37;;;;;;;;;;;15.60;99.90;;;;;;5018697;28;19929;-66
2021/05/21 08:38:05;;;;;;;;;;;15.90;99.90;;;;;;5018758;28;19964;-69
2021/05/21 08:40:36;;;;;;;;;;;15.90;99.90;;;;;;5019330;28;19925;-66
2021/05/21 08:43:06;;;;;;;;;;;15.80;99.90;;;;;;5019551;28;20280;-66
2021/05/21 08:45:34;;;;;;;;;;;16.00;99.90;;;;;;5017669;28;23013;-67
2021/05/21 08:48:03;;;;;;;;;;;15.60;99.90;;;;;;5033948;28;20278;-66
2021/05/21 08:50:31;;;;;;;;;;;15.80;99.90;;;;;;5016785;28;19972;-68
2021/05/21 08:52:59;;;;;;;;;;;15.90;99.80;;;;;;5017105;28;19948;-66
2021/05/21 08:55:27;;;;;;;;;;;16.10;99.60;;;;;;5018274;28;19929;-66
2021/05/21 08:57:55;;;;;;;;;;;16.20;99.20;;;;;;5017329;28;19976;-66
2021/05/21 09:00:22;;;;;;;;;;;16.30;98.90;;;;;;5017585;28;19932;-66
2021/05/21 09:02:50;;;;;;;;;;;16.30;98.80;;;;;;5017421;28;20016;-66
2021/05/21 09:08:11;;;;;;;;;;;16.10;99.00;;;;;;5017625;28;20314;-68
2021/05/21 09:10:44;;;;;;;;;;;16.10;98.80;;;;;;5018382;28;19993;-67
2021/05/21 09:13:13;;;;;;;;;;;16.20;98.80;;;;;;5018179;28;20023;-66
2021/05/21 09:15:42;;;;;;;;;;;16.00;99.70;;;;;;5016790;28;19932;-66
2021/05/21 09:18:10;;;;;;;;;;;16.10;99.20;;;;;;5017918;28;19929;-68
2021/05/21 09:20:40;;;;;;;;;;;15.90;99.40;;;;;;5018454;28;19929;-66
2021/05/21 09:23:09;;;;;;;;;;;15.90;99.90;;;;;;5018076;28;20296;-66
2021/05/21 09:25:38;;;;;;;;;;;16.00;99.90;;;;;;5016524;28;20388;-66
2021/05/21 09:28:07;;;;;;;;;;;15.90;99.90;;;;;;5018163;28;19925;-66
2021/05/21 09:30:35;;;;;;;;;;;16.10;99.90;;;;;;5043814;22;19961;-70
2021/05/21 09:33:03;;;;;;;;;;;16.20;99.30;;;;;;5037916;28;19975;-72
2021/05/21 09:35:31;;;;;;;;;;;16.10;99.50;;;;;;5037118;28;19925;-78
2021/05/21 09:38:00;;;;;;;;;;;16.10;99.60;;;;;;5054814;28;19932;-70
2021/05/21 09:40:29;;;;;;;;;;;16.20;99.70;;;;;;5054189;28;19975;-71
2021/05/21 09:42:58;;;;;;;;;;;15.90;99.50;;;;;;5038555;28;19933;-71
2021/05/21 09:45:27;;;;;;;;;;;16.10;99.70;;;;;;5038980;28;19935;-70
2021/05/21 09:47:57;;;;;;;;;;;16.20;99.30;;;;;;5040616;28;20388;-71
2021/05/21 09:50:38;;;;;;;;;;;15.90;99.10;;;;;;5039773;28;19956;-72
2021/05/21 09:53:08;;;;;;;;;;;15.90;99.20;;;;;;5037998;28;19925;-70
2021/05/21 09:55:37;;;;;;;;;;;15.90;98.90;;;;;;5038081;28;19988;-71
2021/05/21 09:58:06;;;;;;;;;;;15.80;98.70;;;;;;5037731;28;19997;-70
2021/05/21 10:00:33;;;;;;;;;;;16.10;98.70;;;;;;5038038;28;19960;-70
2021/05/21 10:03:02;;;;;;;;;;;16.20;98.60;;;;;;5039893;28;19988;-70
2021/05/21 10:05:50;;;;;;;;;;;16.40;98.60;;;;;;5039386;28;19929;-70
2021/05/21 10:08:19;;;;;;;;;;;16.30;98.00;;;;;;5039800;28;20019;-70
2021/05/21 10:10:47;;;;;;;;;;;16.30;98.10;;;;;;5037953;28;19925;-70
2021/05/21 10:13:15;;;;;;;;;;;16.20;97.40;;;;;;5038764;28;20031;-69
2021/05/21 10:15:43;;;;;;;;;;;16.10;97.40;;;;;;5036699;28;19925;-70
2021/05/21 10:18:13;;;;;;;;;;;16.20;97.80;;;;;;5038857;28;19925;-70
2021/05/21 10:20:43;;;;;;;;;;;16.30;97.40;;;;;;5037973;28;19943;-69
2021/05/21 10:23:13;;;;;;;;;;;16.40;97.10;;;;;;5038755;28;19925;-70
2021/05/21 10:25:42;;;;;;;;;;;16.40;97.20;;;;;;5038947;28;19925;-70
2021/05/21 10:28:11;;;;;;;;;;;16.20;97.60;;;;;;5038914;28;19936;-70
2021/05/21 10:30:39;;;;;;;;;;;16.20;97.40;;;;;;5037286;28;19925;-70
2021/05/21 10:33:13;;;;;;;;;;;16.30;97.20;;;;;;5038638;28;19932;-70
2021/05/21 10:36:24;;;;;;;;;;;16.40;97.40;;;;;;5038514;28;19925;-70
2021/05/21 10:39:11;;;;;;;;;;;16.30;97.30;;;;;;5038984;28;19925;-70
2021/05/21 10:42:00;;;;;;;;;;;16.40;97.60;;;;;;5039347;28;20578;-72
2021/05/21 10:44:40;;;;;;;;;;;16.30;97.90;;;;;;5038083;28;19925;-71
2021/05/21 10:47:22;;;;;;;;;;;16.20;97.90;;;;;;5037255;28;19932;-70
2021/05/21 10:50:06;;;;;;;;;;;16.30;98.00;;;;;;5037665;28;20024;-69
2021/05/21 10:52:52;;;;;;;;;;;16.40;97.50;;;;;;5038047;28;20304;-70
2021/05/21 10:55:37;;;;;;;;;;;16.40;97.40;;;;;;5039850;28;19931;-70
2021/05/21 10:58:20;;;;;;;;;;;16.30;97.80;;;;;;5037842;28;20324;-71
2021/05/21 11:01:07;;;;;;;;;;;16.40;97.60;;;;;;5037209;28;19956;-70
2021/05/21 11:06:54;;;;;;;;;;;16.10;97.90;;;;;;5039218;28;19929;-70
2021/05/21 11:09:23;;;;;;;;;;;15.90;98.30;;;;;;5039522;28;20334;-69
2021/05/21 11:11:52;;;;;;;;;;;15.90;98.70;;;;;;5038264;28;19925;-70
2021/05/21 11:14:31;;;;;;;;;;;16.00;98.60;;;;;;5040483;28;19929;-71
2021/05/21 11:17:00;;;;;;;;;;;15.90;99.00;;;;;;5038199;28;20292;-71
2021/05/21 11:19:28;;;;;;;;;;;16.00;98.50;;;;;;5040058;28;19947;-70
2021/05/21 11:22:15;;;;;;;;;;;15.80;99.30;;;;;;5039091;28;19983;-70
2021/05/21 11:24:43;;;;;;;;;;;15.70;99.10;;;;;;5039452;28;19929;-72
2021/05/21 11:27:12;;;;;;;;;;;15.70;99.50;;;;;;5038351;28;19925;-70
2021/05/21 11:29:43;;;;;;;;;;;15.80;99.90;;;;;;5038635;28;19932;-71
2021/05/21 11:32:11;;;;;;;;;;;15.80;99.60;;;;;;5039369;28;19924;-69
2021/05/21 11:34:39;;;;;;;;;;;15.90;99.90;;;;;;5037944;28;19964;-70
2021/05/21 11:37:07;;;;;;;;;;;16.00;99.90;;;;;;5055293;28;20430;-70
2021/05/21 11:39:37;;;;;;;;;;;16.10;99.90;;;;;;5037773;28;19932;-70
2021/05/21 11:42:05;;;;;;;;;;;16.20;99.70;;;;;;5038433;28;19925;-70
2021/05/21 11:44:34;;;;;;;;;;;16.30;99.50;;;;;;5038262;28;19925;-69
2021/05/21 11:47:03;;;;;;;;;;;16.30;99.30;;;;;;5052552;28;20377;-70
2021/05/21 11:49:31;;;;;;;;;;;16.40;99.30;;;;;;5035815;28;19933;-70
2021/05/21 11:52:01;;;;;;;;;;;16.40;99.30;;;;;;5036769;28;19964;-71
2021/05/21 11:54:29;;;;;;;;;;;16.30;99.20;;;;;;5038093;28;19929;-70
2021/05/21 11:56:57;;;;;;;;;;;16.40;99.50;;;;;;5036798;28;19944;-70
2021/05/21 11:59:25;;;;;;;;;;;16.80;99.30;;;;;;5035936;28;19940;-71
2021/05/21 12:01:54;;;;;;;;;;;16.90;98.70;;;;;;5036022;28;19926;-70
2021/05/21 12:04:23;;;;;;;;;;;16.60;99.20;;;;;;5056526;28;19925;-69
2021/05/21 12:06:52;;;;;;;;;;;16.60;99.40;;;;;;5023436;28;19925;-69
2021/05/21 12:09:21;;;;;;;;;;;16.60;99.40;;;;;;5039524;28;20028;-69
2021/05/21 12:11:49;;;;;;;;;;;16.90;98.90;;;;;;5039521;28;19940;-69
2021/05/21 12:14:18;;;;;;;;;;;17.30;98.20;;;;;;5056176;28;19925;-70
2021/05/21 12:16:46;;;;;;;;;;;17.20;98.20;;;;;;5040671;28;20442;-70
2021/05/21 12:19:14;;;;;;;;;;;17.20;98.00;;;;;;5041105;28;20377;-70
2021/05/21 12:21:43;;;;;;;;;;;17.20;98.10;;;;;;5023553;28;19926;-69
2021/05/21 12:24:36;;;;;;;;;;;17.20;97.50;;;;;;5040893;28;19932;-70
2021/05/21 12:27:05;;;;;;;;;;;16.80;96.80;;;;;;5038706;28;20369;-71
2021/05/21 12:29:33;;;;;;;;;;;17.00;96.80;;;;;;5039033;28;19925;-69
2021/05/21 12:32:02;;;;;;;;;;;17.10;96.20;;;;;;5039250;28;19980;-70
2021/05/21 12:34:30;;;;;;;;;;;17.20;96.20;;;;;;5040121;28;19929;-71
2021/05/21 12:36:59;;;;;;;;;;;17.30;95.20;;;;;;5040788;28;19929;-70
2021/05/21 12:39:31;;;;;;;;;;;17.40;94.70;;;;;;5039018;28;19932;-70
2021/05/21 12:42:00;;;;;;;;;;;17.80;94.20;;;;;;5040305;28;19931;-70
2021/05/21 12:44:28;;;;;;;;;;;18.00;93.60;;;;;;5039971;28;19931;-73
2021/05/21 12:46:57;;;;;;;;;;;18.30;93.50;;;;;;5038398;28;19925;-70
2021/05/21 12:49:26;;;;;;;;;;;18.70;92.60;;;;;;5039718;28;20296;-70
2021/05/21 12:51:56;;;;;;;;;;;18.10;92.30;;;;;;5022665;28;19925;-71
2021/05/21 12:54:27;;;;;;;;;;;18.20;92.00;;;;;;5038926;28;20028;-70
2021/05/21 12:56:56;;;;;;;;;;;18.00;92.20;;;;;;5040103;28;19961;-71
2021/05/21 12:59:32;;;;;;;;;;;17.80;92.30;;;;;;5039595;28;20061;-70
2021/05/21 13:02:00;;;;;;;;;;;17.70;92.00;;;;;;5037660;28;19929;-70
2021/05/21 13:04:28;;;;;;;;;;;17.60;92.30;;;;;;5038379;28;19925;-70
2021/05/21 13:06:57;;;;;;;;;;;17.70;92.10;;;;;;5038117;28;19925;-70
2021/05/21 13:09:30;;;;;;;;;;;17.60;92.10;;;;;;5038355;28;20277;-71
2021/05/21 13:11:58;;;;;;;;;;;17.50;92.50;;;;;;5039476;28;20019;-70
2021/05/21 13:14:29;;;;;;;;;;;17.60;93.30;;;;;;5053659;28;19975;-72
2021/05/21 13:16:58;;;;;;;;;;;17.50;94.00;;;;;;5038009;28;19929;-70
2021/05/21 13:19:28;;;;;;;;;;;17.60;93.90;;;;;;5038964;28;19925;-70
2021/05/21 13:22:09;;;;;;;;;;;17.50;95.50;;;;;;5021501;28;19925;-70
2021/05/21 13:24:41;;;;;;;;;;;16.90;96.50;;;;;;5021403;28;19948;-71
2021/05/21 13:27:09;;;;;;;;;;;16.80;97.30;;;;;;5038436;28;19925;-70
2021/05/21 13:29:37;;;;;;;;;;;16.70;97.50;;;;;;5037354;28;19925;-72
2021/05/21 13:32:06;;;;;;;;;;;16.70;97.70;;;;;;5036365;28;19925;-71
2021/05/21 13:34:34;;;;;;;;;;;16.70;97.40;;;;;;5038970;28;19925;-69
2021/05/21 13:37:02;;;;;;;;;;;16.80;96.90;;;;;;5037165;28;19929;-70
2021/05/21 13:39:31;;;;;;;;;;;16.90;96.90;;;;;;5038597;28;19925;-72
2021/05/21 13:41:59;;;;;;;;;;;16.90;96.50;;;;;;5036977;28;19929;-71
2021/05/21 13:44:27;;;;;;;;;;;16.80;96.80;;;;;;5037924;28;19931;-70
2021/05/21 13:46:55;;;;;;;;;;;16.70;97.10;;;;;;5036131;28;20429;-74
2021/05/21 13:49:26;;;;;;;;;;;16.70;97.50;;;;;;5037218;28;19975;-71
2021/05/21 13:51:55;;;;;;;;;;;16.30;98.10;;;;;;5037930;28;19925;-70
2021/05/21 13:54:23;;;;;;;;;;;16.30;98.10;;;;;;5036152;28;19925;-70
2021/05/21 13:56:51;;;;;;;;;;;16.10;98.90;;;;;;5037231;28;19929;-70
2021/05/21 13:59:19;;;;;;;;;;;16.30;99.40;;;;;;5036673;28;19925;-70
2021/05/21 14:01:48;;;;;;;;;;;16.10;99.70;;;;;;5053045;28;19926;-69
2021/05/21 14:04:17;;;;;;;;;;;16.00;99.90;;;;;;5037223;28;20320;-69
2021/05/21 14:06:45;;;;;;;;;;;15.80;99.90;;;;;;5036745;28;19929;-70
2021/05/21 14:09:13;;;;;;;;;;;15.80;99.90;;;;;;5019409;28;19925;-70
2021/05/21 14:11:41;;;;;;;;;;;15.80;99.90;;;;;;5036648;28;19924;-69
2021/05/21 14:14:11;;;;;;;;;;;15.90;99.90;;;;;;5038609;28;20377;-70
2021/05/21 14:16:41;;;;;;;;;;;15.70;99.90;;;;;;5037305;28;19932;-69
2021/05/21 14:22:03;;;;;;;;;;;15.50;99.90;;;;;;5036314;28;19932;-72
2021/05/21 14:24:56;;;;;;;;;;;15.40;99.90;;;;;;5036748;28;20396;-69
2021/05/21 14:27:26;;;;;;;;;;;15.60;99.90;;;;;;5035689;28;19925;-70
2021/05/21 14:29:54;;;;;;;;;;;15.80;99.90;;;;;;5051464;28;19925;-70
2021/05/21 14:32:23;;;;;;;;;;;15.70;99.90;;;;;;5034695;28;19932;-70
2021/05/21 14:34:51;;;;;;;;;;;15.50;99.90;;;;;;5034943;28;19925;-71
2021/05/21 14:37:20;;;;;;;;;;;15.50;99.90;;;;;;5051667;28;20333;-70
2021/05/21 14:39:48;;;;;;;;;;;15.40;99.90;;;;;;5037011;28;20276;-72
2021/05/21 14:42:16;;;;;;;;;;;15.40;99.90;;;;;;5035581;28;19924;-70
2021/05/21 14:44:45;;;;;;;;;;;15.70;99.90;;;;;;5036732;28;19925;-70
2021/05/21 14:47:13;;;;;;;;;;;15.50;99.90;;;;;;5036576;28;19948;-69
2021/05/21 14:49:42;;;;;;;;;;;15.60;99.90;;;;;;5036531;28;19929;-73